Preble, Wisconsin
Current Conditions -  °F | °C
As of 10:53 PM on Sunday 19 Oct 2014 (Local Time) from KGRB Reporting Station
Few Clouds Few Clouds  
Wind Chill: 47°   Ceiling: Unl
Heat Index: 49°   Visibility: 10mi
Dew Point: 44°   Wind: 5mph
Humidity: 83%   Direction: 200°SSW
Pressure: 29.77"   Gusts: NA
Location:  44.5075°N, 87.9746°W
Report Text: KGRB 200353Z 20004KT 10SM FEW110 09/07 A2977 RMK AO2 SLP086 T00940067
Loading
Personal Weather Stations






























Interactive Weather Map
Tropical Storm Tracking
New forecast layout! Learn more

10-Day Weather Forecast

Advertisements
Track Severe Weather on mobile